createdAt,value
2023-01-15T00:02:50.484Z,2.1
2023-01-15T00:07:50.664Z,2.1
2023-01-15T00:12:53.201Z,2.2
2023-01-15T00:17:50.473Z,2.1
2023-01-15T00:22:50.447Z,1.7
2023-01-15T00:27:50.973Z,2.1
2023-01-15T00:32:50.480Z,2.1
2023-01-15T00:37:50.428Z,2.1
2023-01-15T00:42:54.847Z,2.1
2023-01-15T00:47:50.724Z,2.1
2023-01-15T00:52:50.455Z,2.1
2023-01-15T00:57:51.016Z,2.1
2023-01-15T01:02:51.479Z,1.9
2023-01-15T01:07:50.432Z,1.8
2023-01-15T01:12:52.074Z,1.8
2023-01-15T01:17:56.546Z,1.7
2023-01-15T01:22:50.924Z,1.1
2023-01-15T01:27:52.709Z,1.1
2023-01-15T01:32:50.449Z,1.5
2023-01-15T01:37:50.392Z,0.9
2023-01-15T01:42:53.140Z,1.5
2023-01-15T01:47:50.457Z,1.5
2023-01-15T01:52:50.427Z,1.5
2023-01-15T01:57:51.768Z,1.5
2023-01-15T02:02:50.436Z,1.5
2023-01-15T02:07:50.407Z,1.5
2023-01-15T02:12:51.612Z,1.5
2023-01-15T02:17:50.432Z,1.5
2023-01-15T02:22:50.444Z,1.4
2023-01-15T02:27:51.172Z,1.3
2023-01-15T02:32:50.439Z,1.3
2023-01-15T02:37:50.476Z,1.4
2023-01-15T02:42:53.707Z,1.3
2023-01-15T02:47:50.509Z,1.3
2023-01-15T02:52:50.431Z,1.4
2023-01-15T02:57:50.829Z,1
2023-01-15T03:07:50.417Z,1.2
2023-01-15T03:12:51.923Z,1.1
2023-01-15T03:17:50.456Z,1.1
2023-01-15T03:22:50.418Z,1.1
2023-01-15T03:27:51.953Z,1.1
2023-01-15T03:32:50.469Z,1.2
2023-01-15T03:37:50.428Z,1.2
2023-01-15T03:42:51.079Z,1.2
2023-01-15T03:47:50.444Z,1.3
2023-01-15T03:52:50.445Z,1.3
2023-01-15T03:57:50.820Z,1.3
2023-01-15T04:02:50.450Z,1.4
2023-01-15T04:07:50.474Z,1.4
2023-01-15T04:12:52.466Z,1.5
2023-01-15T04:17:50.440Z,1.5
2023-01-15T04:22:50.550Z,1.4
2023-01-15T04:27:52.764Z,1.4
2023-01-15T04:32:51.463Z,1.4
2023-01-15T04:37:50.492Z,1.1
2023-01-15T04:42:51.225Z,1.1
2023-01-15T04:47:50.450Z,1.1
2023-01-15T04:52:50.439Z,0.9
2023-01-15T04:57:51.905Z,0.9
2023-01-15T05:02:50.517Z,0.9
2023-01-15T05:07:52.740Z,1.5
2023-01-15T05:12:52.305Z,1.5
2023-01-15T05:17:50.459Z,1.5
2023-01-15T05:22:51.965Z,1
2023-01-15T05:27:51.235Z,1
2023-01-15T05:32:50.466Z,1.5
2023-01-15T05:37:50.488Z,1
2023-01-15T05:42:52.999Z,0.9
2023-01-15T05:47:50.462Z,0.9
2023-01-15T05:52:50.519Z,0.9
2023-01-15T05:57:53.635Z,0.9
2023-01-15T06:02:50.627Z,0.9
2023-01-15T06:07:50.454Z,0.9
2023-01-15T06:12:52.884Z,0.9
2023-01-15T06:17:50.481Z,0.9
2023-01-15T06:22:50.487Z,1.1
2023-01-15T06:27:51.853Z,1.2
2023-01-15T06:32:50.486Z,1.2
2023-01-15T06:37:52.507Z,1.2
2023-01-15T06:42:51.454Z,0.7
2023-01-15T06:47:50.469Z,0.7
2023-01-15T06:52:50.476Z,1.1
2023-01-15T06:57:51.586Z,0.9
2023-01-15T07:02:50.472Z,0.8
2023-01-15T07:07:50.511Z,0.9
2023-01-15T07:12:52.529Z,0.9
2023-01-15T07:17:50.526Z,0.9
2023-01-15T07:22:50.534Z,0.9
2023-01-15T07:27:51.103Z,0.9
2023-01-15T07:32:50.547Z,1
2023-01-15T07:37:50.597Z,1
2023-01-15T07:42:51.620Z,1.3
2023-01-15T07:47:50.516Z,1.3
2023-01-15T07:52:53.865Z,1.1
2023-01-15T07:57:51.933Z,1.3
2023-01-15T08:02:50.560Z,1.3
2023-01-15T08:07:50.681Z,1.2
2023-01-15T08:12:53.295Z,1.3
2023-01-15T08:17:50.790Z,1.6
2023-01-15T08:22:50.529Z,1.9
2023-01-15T08:27:52.944Z,1.9
2023-01-15T08:32:50.701Z,2.2
2023-01-15T08:37:50.557Z,3
2023-01-15T08:42:51.364Z,3.1
2023-01-15T08:47:50.616Z,3.6
2023-01-15T08:52:50.531Z,6.2
2023-01-15T08:57:52.643Z,6.2
2023-01-15T09:02:51.653Z,6.2
2023-01-15T09:07:50.600Z,6.2
2023-01-15T09:12:52.848Z,5.2
2023-01-15T09:17:50.651Z,5.2
2023-01-15T09:22:50.546Z,5.2
2023-01-15T09:27:51.425Z,4.9
2023-01-15T09:37:53.653Z,5.2
2023-01-15T09:42:53.930Z,6.5
2023-01-15T09:47:53.527Z,6.5
2023-01-15T09:52:53.529Z,6.5
2023-01-15T09:57:54.715Z,6.5
2023-01-15T10:02:53.599Z,4.9
2023-01-15T10:07:53.550Z,6.5
2023-01-15T10:12:53.585Z,5.2
2023-01-15T10:17:53.702Z,4.9
2023-01-15T10:22:53.586Z,4.9
2023-01-15T10:27:53.608Z,5.2
2023-01-15T10:33:02.222Z,5.2
2023-01-15T10:37:53.643Z,5.2
2023-01-15T10:42:53.568Z,5.2
2023-01-15T10:47:53.555Z,5.4
2023-01-15T10:52:53.618Z,5.4
2023-01-15T10:58:09.177Z,5.4
2023-01-15T11:02:53.595Z,5.4
2023-01-15T11:08:28.524Z,5.4
2023-01-15T11:13:01.206Z,5.4
2023-01-15T11:17:53.564Z,4.2
2023-01-15T11:22:53.634Z,2.2
2023-01-15T11:27:53.875Z,1.5
2023-01-15T11:32:53.551Z,1.3
2023-01-15T11:37:53.553Z,1.1
2023-01-15T11:42:53.579Z,1.1
2023-01-15T11:47:53.583Z,1.1
2023-01-15T11:52:53.536Z,1.1
2023-01-15T11:57:53.816Z,1.8
2023-01-15T12:02:53.580Z,2.5
2023-01-15T12:07:53.540Z,2.5
2023-01-15T12:12:53.596Z,2.5
2023-01-15T12:17:53.573Z,2.7
2023-01-15T12:22:53.556Z,2.3
2023-01-15T12:27:53.598Z,1.8
2023-01-15T12:32:53.590Z,1.5
2023-01-15T12:37:53.571Z,1.3
2023-01-15T12:42:53.568Z,1
2023-01-15T12:47:53.787Z,1
2023-01-15T12:52:54.933Z,1
2023-01-15T12:57:54.957Z,1
2023-01-15T13:02:53.724Z,1
2023-01-15T13:07:53.576Z,1
2023-01-15T13:12:53.853Z,1.1
2023-01-15T13:17:59.212Z,1.1
2023-01-15T13:22:53.592Z,1.1
2023-01-15T13:27:55.145Z,1.3
2023-01-15T13:32:53.844Z,1.2
2023-01-15T13:37:53.567Z,1.3
2023-01-15T13:42:58.596Z,1.7
2023-01-15T13:47:54.582Z,1.2
2023-01-15T13:52:53.686Z,1.7
2023-01-15T13:57:56.047Z,2
2023-01-15T14:02:53.720Z,2
2023-01-15T14:07:53.655Z,2.7
2023-01-15T14:12:53.679Z,2.7
2023-01-15T14:17:53.695Z,2.7
2023-01-15T14:22:53.625Z,2.7
2023-01-15T14:27:53.881Z,2.7
2023-01-15T14:32:53.665Z,2.6
2023-01-15T14:37:53.606Z,2.6
2023-01-15T14:42:53.628Z,2.6
2023-01-15T14:47:53.808Z,2.6
2023-01-15T14:52:53.694Z,2.9
2023-01-15T14:57:56.311Z,3
2023-01-15T15:02:53.760Z,3
2023-01-15T15:07:54.538Z,3
2023-01-15T15:12:54.632Z,2.9
2023-01-15T15:17:54.603Z,2.6
2023-01-15T15:22:54.625Z,2.4
2023-01-15T15:27:54.589Z,2.4
2023-01-15T15:32:54.609Z,2.3
2023-01-15T15:37:54.738Z,2.1
2023-01-15T15:42:55.618Z,2.3
2023-01-15T15:47:54.597Z,2.6
2023-01-15T15:52:54.608Z,3.1
2023-01-15T15:57:54.672Z,3.2
2023-01-15T16:02:54.818Z,3.2
2023-01-15T16:07:54.661Z,3.8
2023-01-15T16:12:54.602Z,4.4
2023-01-15T16:17:54.708Z,4.7
2023-01-15T16:22:54.604Z,4.7
2023-01-15T16:27:54.611Z,4.7
2023-01-15T16:32:55.918Z,4.4
2023-01-15T16:37:54.646Z,3.1
2023-01-15T16:42:54.612Z,3.1
2023-01-15T16:47:54.635Z,3
2023-01-15T16:52:54.622Z,2.7
2023-01-15T16:57:54.688Z,3
2023-01-15T17:02:54.619Z,3
2023-01-15T17:07:54.667Z,3
2023-01-15T17:12:54.622Z,4
2023-01-15T17:17:54.661Z,4
2023-01-15T17:22:54.652Z,4.1
2023-01-15T17:27:56.126Z,4.2
2023-01-15T17:32:54.618Z,4.2
2023-01-15T17:37:54.677Z,4.2
2023-01-15T17:42:54.609Z,4.7
2023-01-15T17:47:54.638Z,7.9
2023-01-15T17:52:54.700Z,7.6
2023-01-15T17:57:55.154Z,7.6
2023-01-15T18:02:54.665Z,7.6
2023-01-15T18:07:54.626Z,7.6
2023-01-15T18:12:54.724Z,7.3
2023-01-15T18:17:54.688Z,7.1
2023-01-15T18:22:54.632Z,6.4
2023-01-15T18:27:54.675Z,6.4
2023-01-15T18:32:54.631Z,6.4
2023-01-15T18:37:54.636Z,6.4
2023-01-15T18:42:54.622Z,6.4
2023-01-15T18:47:54.655Z,6.5
2023-01-15T18:52:54.691Z,6.5
2023-01-15T18:57:55.323Z,8.9
2023-01-15T19:02:54.660Z,8.9
2023-01-15T19:07:54.637Z,8.9
2023-01-15T19:12:54.670Z,8.9
2023-01-15T19:17:54.670Z,8.9
2023-01-15T19:22:54.701Z,8.9
2023-01-15T19:27:54.635Z,7.9
2023-01-15T19:32:54.629Z,7.9
2023-01-15T19:37:54.657Z,7.4
2023-01-15T19:42:54.643Z,7.4
2023-01-15T19:47:54.656Z,7.4
2023-01-15T19:52:54.680Z,7.9
2023-01-15T19:57:55.493Z,7.9
2023-01-15T20:02:54.735Z,8
2023-01-15T20:07:54.652Z,11.4
2023-01-15T20:12:54.667Z,11.4
2023-01-15T20:17:54.697Z,11.4
2023-01-15T20:22:54.639Z,11.6
2023-01-15T20:27:54.638Z,11.6
2023-01-15T20:32:54.954Z,11.6
2023-01-15T20:37:54.696Z,11.6
2023-01-15T20:42:54.670Z,10.6
2023-01-15T20:47:54.758Z,10.6
2023-01-15T20:52:54.647Z,9.2
2023-01-15T20:57:55.137Z,7.9
2023-01-15T21:02:54.688Z,7.9
2023-01-15T21:07:54.756Z,7.9
2023-01-15T21:12:54.675Z,9.2
2023-01-15T21:17:54.645Z,8.4
2023-01-15T21:22:54.664Z,10.4
2023-01-15T21:27:54.740Z,10.4
2023-01-15T21:32:54.710Z,10.4
2023-01-15T21:37:54.754Z,9
2023-01-15T21:42:54.695Z,8.9
2023-01-15T21:47:54.669Z,8.9
2023-01-15T21:52:54.706Z,8.9
2023-01-15T21:57:56.908Z,8.9
2023-01-15T22:02:54.717Z,8.9
2023-01-15T22:07:54.761Z,8.9
2023-01-15T22:12:54.838Z,8.9
2023-01-15T22:17:54.910Z,8.9
2023-01-15T22:22:54.706Z,8.2
2023-01-15T22:27:54.676Z,8.2
2023-01-15T22:32:54.694Z,9.4
2023-01-15T22:37:54.711Z,8.4
2023-01-15T22:42:54.693Z,8.2
2023-01-15T22:47:54.692Z,8.2
2023-01-15T22:52:54.715Z,8.4
2023-01-15T22:57:58.085Z,8.6
2023-01-15T23:02:54.688Z,8.6
2023-01-15T23:07:54.704Z,8.4
2023-01-15T23:12:57.115Z,6.8
2023-01-15T23:17:54.704Z,6.8
2023-01-15T23:22:54.723Z,6.5
2023-01-15T23:27:55.249Z,6.3
2023-01-15T23:32:55.246Z,6.3
2023-01-15T23:37:54.715Z,5.3
2023-01-15T23:42:54.810Z,5.1
2023-01-15T23:47:54.672Z,4.9
2023-01-15T23:52:55.011Z,5.1
2023-01-15T23:57:56.574Z,4.9
